createdAt,value
2022-08-20T00:01:01.689Z,17.90
2022-08-20T00:06:07.154Z,17.86
2022-08-20T00:11:12.427Z,17.85
2022-08-20T00:16:17.248Z,17.75
2022-08-20T00:21:21.180Z,17.67
2022-08-20T00:26:26.045Z,17.55
2022-08-20T00:31:28.473Z,17.46
2022-08-20T00:36:33.015Z,17.38
2022-08-20T00:41:35.356Z,17.25
2022-08-20T00:46:38.477Z,17.14
2022-08-20T00:51:42.436Z,16.96
2022-08-20T00:56:49.418Z,16.81
2022-08-20T01:01:55.410Z,16.77
2022-08-20T01:06:58.554Z,16.60
2022-08-20T01:12:01.567Z,16.53
2022-08-20T01:17:08.106Z,16.53
2022-08-20T01:22:11.965Z,16.49
2022-08-20T01:27:14.842Z,16.51
2022-08-20T01:32:16.999Z,16.65
2022-08-20T01:37:19.144Z,16.58
2022-08-20T01:42:30.410Z,16.59
2022-08-20T01:47:36.402Z,16.53
2022-08-20T01:53:30.021Z,16.42
2022-08-20T01:58:35.291Z,16.44
2022-08-20T02:03:40.749Z,16.35
2022-08-20T02:08:46.277Z,16.28
2022-08-20T02:13:49.267Z,16.22
2022-08-20T02:18:53.494Z,16.18
2022-08-20T02:23:55.650Z,16.17
2022-08-20T02:28:58.035Z,16.19
2022-08-20T02:34:22.354Z,16.20
2022-08-20T02:39:25.163Z,16.27
2022-08-20T02:44:27.303Z,16.27
2022-08-20T02:49:29.620Z,16.29
2022-08-20T02:54:31.746Z,16.31
2022-08-20T02:59:33.897Z,16.24
2022-08-20T03:04:36.069Z,16.19
2022-08-20T03:09:38.874Z,16.08
2022-08-20T03:14:41.205Z,15.97
2022-08-20T03:19:43.331Z,15.81
2022-08-20T03:24:45.500Z,15.78
2022-08-20T03:29:47.623Z,15.65
2022-08-20T03:34:49.787Z,15.62
2022-08-20T03:39:52.007Z,15.50
2022-08-20T03:44:58.662Z,15.35
2022-08-20T03:50:04.690Z,15.29
2022-08-20T03:55:08.969Z,15.16
2022-08-20T04:00:12.354Z,15.06
2022-08-20T04:05:17.305Z,15.04
2022-08-20T04:10:19.992Z,14.88
2022-08-20T04:15:22.177Z,14.82
2022-08-20T04:20:25.408Z,14.82
2022-08-20T04:25:28.456Z,14.75
2022-08-20T04:30:32.982Z,14.69
2022-08-20T04:35:35.017Z,14.66
2022-08-20T04:40:37.129Z,14.64
2022-08-20T04:45:39.477Z,14.52
2022-08-20T04:50:44.128Z,14.39
2022-08-20T04:55:47.141Z,14.35
2022-08-20T05:00:52.768Z,14.52
2022-08-20T05:05:55.028Z,14.65
2022-08-20T05:11:06.597Z,14.74
2022-08-20T05:16:20.997Z,14.84
2022-08-20T05:21:22.989Z,14.89
2022-08-20T05:26:25.077Z,14.96
2022-08-20T05:31:32.693Z,15.02
2022-08-20T05:36:36.330Z,15.03
2022-08-20T05:41:39.369Z,15.07
2022-08-20T05:46:42.479Z,15.11
2022-08-20T05:51:44.649Z,15.19
2022-08-20T05:56:46.864Z,15.19
2022-08-20T06:01:49.010Z,15.21
2022-08-20T06:06:53.218Z,15.28
2022-08-20T06:11:55.433Z,15.37
2022-08-20T06:17:10.801Z,15.60
2022-08-20T06:22:21.329Z,15.98
2022-08-20T06:27:27.561Z,15.91
2022-08-20T06:32:32.679Z,15.75
2022-08-20T06:37:37.040Z,15.71
2022-08-20T06:42:39.631Z,15.52
2022-08-20T06:47:44.263Z,15.54
2022-08-20T06:52:52.781Z,15.95
2022-08-20T06:58:00.207Z,17.18
2022-08-20T07:03:03.746Z,18.50
2022-08-20T07:08:05.903Z,18.63
2022-08-20T07:13:08.817Z,19.23
2022-08-20T07:18:12.988Z,19.49
2022-08-20T07:23:15.454Z,19.17
2022-08-20T07:28:22.927Z,19.58
2022-08-20T07:33:28.315Z,19.86
2022-08-20T07:38:31.875Z,20.22
2022-08-20T07:43:34.665Z,21.17
2022-08-20T07:48:40.068Z,21.49
2022-08-20T07:53:42.458Z,22.26
2022-08-20T07:58:50.502Z,21.49
2022-08-20T08:03:53.206Z,20.88
2022-08-20T08:08:55.661Z,21.41
2022-08-20T08:13:59.900Z,23.07
2022-08-20T08:19:06.219Z,23.00
2022-08-20T08:24:08.391Z,22.53
2022-08-20T08:29:10.874Z,22.17
2022-08-20T08:34:12.953Z,21.54
2022-08-20T08:39:15.070Z,21.02
2022-08-20T08:44:29.298Z,21.15
2022-08-20T08:49:38.079Z,21.00
2022-08-20T08:54:47.227Z,22.21
2022-08-20T09:00:04.712Z,22.37
2022-08-20T09:05:16.304Z,22.78
2022-08-20T09:10:18.665Z,23.89
2022-08-20T09:15:25.480Z,24.51
2022-08-20T09:20:27.499Z,24.91
2022-08-20T09:25:29.580Z,25.22
2022-08-20T09:30:31.805Z,25.15
2022-08-20T09:35:33.992Z,25.75
2022-08-20T09:40:36.199Z,25.70
2022-08-20T09:45:38.421Z,26.43
2022-08-20T09:50:45.860Z,26.88
2022-08-20T09:55:53.340Z,27.38
2022-08-20T10:00:55.550Z,28.02
2022-08-20T10:05:57.710Z,26.94
2022-08-20T10:10:59.939Z,27.37
2022-08-20T10:16:02.188Z,28.11
2022-08-20T10:21:10.068Z,27.83
2022-08-20T10:26:12.959Z,27.68
2022-08-20T10:31:15.234Z,28.25
2022-08-20T10:36:18.061Z,28.51
2022-08-20T10:41:20.358Z,28.75
2022-08-20T10:46:22.724Z,26.15
2022-08-20T10:51:32.197Z,27.52
2022-08-20T10:56:35.220Z,28.27
2022-08-20T11:01:37.538Z,27.42
2022-08-20T11:06:39.756Z,28.20
2022-08-20T11:11:41.917Z,28.54
2022-08-20T11:16:44.096Z,28.69
2022-08-20T11:21:46.306Z,30.23
2022-08-20T11:26:49.789Z,28.80
2022-08-20T11:31:52.003Z,29.55
2022-08-20T11:36:54.254Z,28.64
2022-08-20T11:41:56.478Z,26.95
2022-08-20T11:47:06.360Z,26.04
2022-08-20T11:52:08.506Z,26.44
2022-08-20T11:57:11.707Z,26.18
2022-08-20T12:02:13.905Z,27.02
2022-08-20T12:07:21.775Z,25.94
2022-08-20T12:12:24.069Z,24.55
2022-08-20T12:17:28.920Z,25.64
2022-08-20T12:22:31.154Z,27.01
2022-08-20T12:27:35.200Z,28.62
2022-08-20T12:32:37.424Z,29.51
2022-08-20T12:37:40.291Z,29.35
2022-08-20T12:42:42.462Z,28.36
2022-08-20T12:47:47.916Z,26.91
2022-08-20T12:52:50.251Z,26.61
2022-08-20T12:57:55.599Z,27.31
2022-08-20T13:02:59.725Z,26.20
2022-08-20T13:08:02.664Z,25.06
2022-08-20T13:13:04.821Z,24.52
2022-08-20T13:18:07.280Z,25.90
2022-08-20T13:23:09.369Z,25.23
2022-08-20T13:28:11.553Z,27.07
2022-08-20T13:33:13.763Z,26.97
2022-08-20T13:38:15.925Z,28.65
2022-08-20T13:43:18.107Z,29.44
2022-08-20T13:48:20.313Z,30.26
2022-08-20T13:53:22.481Z,28.99
2022-08-20T13:58:25.197Z,28.04
2022-08-20T14:03:27.351Z,28.15
2022-08-20T14:08:30.299Z,29.32
2022-08-20T14:13:32.455Z,30.51
2022-08-20T14:18:34.639Z,29.74
2022-08-20T14:23:36.951Z,29.57
2022-08-20T14:28:39.223Z,29.61
2022-08-20T14:33:44.647Z,30.07
2022-08-20T14:38:47.053Z,30.09
2022-08-20T14:43:49.207Z,27.33
2022-08-20T14:48:51.832Z,27.02
2022-08-20T14:53:55.637Z,28.70
2022-08-20T14:58:57.804Z,28.09
2022-08-20T15:03:59.971Z,26.82
2022-08-20T15:09:02.475Z,27.61
2022-08-20T15:14:08.429Z,28.28
2022-08-20T15:19:11.001Z,28.63
2022-08-20T15:24:19.411Z,27.33
2022-08-20T15:29:24.682Z,26.58
2022-08-20T15:34:26.846Z,25.98
2022-08-20T15:39:29.009Z,25.29
2022-08-20T15:44:31.032Z,25.16
2022-08-20T15:49:33.127Z,25.45
2022-08-20T15:54:35.422Z,26.13
2022-08-20T15:59:43.626Z,27.82
2022-08-20T16:04:51.890Z,28.71
2022-08-20T16:10:20.532Z,27.70
2022-08-20T16:15:25.737Z,26.96
2022-08-20T16:20:38.629Z,26.95
2022-08-20T16:26:25.451Z,27.04
2022-08-20T16:32:05.348Z,27.20
2022-08-20T16:37:33.883Z,27.34
2022-08-20T16:42:42.151Z,26.45
2022-08-20T16:47:46.430Z,26.40
2022-08-20T16:52:49.225Z,25.73
2022-08-20T16:57:51.918Z,25.11
2022-08-20T17:02:54.006Z,24.90
2022-08-20T17:08:05.440Z,25.04
2022-08-20T17:13:13.292Z,24.44
2022-08-20T17:18:25.336Z,24.16
2022-08-20T17:23:27.939Z,23.67
2022-08-20T17:28:35.149Z,23.34
2022-08-20T17:33:39.632Z,22.54
2022-08-20T17:38:53.813Z,21.87
2022-08-20T17:44:20.332Z,21.36
2022-08-20T17:49:40.075Z,20.88
2022-08-20T17:54:45.309Z,20.46
2022-08-20T17:59:59.839Z,20.07
2022-08-20T18:05:14.297Z,19.61
2022-08-20T18:10:23.425Z,19.20
2022-08-20T18:15:29.658Z,18.79
2022-08-20T18:20:46.884Z,18.28
2022-08-20T18:25:54.552Z,17.92
2022-08-20T18:31:02.524Z,17.56
2022-08-20T18:36:12.987Z,17.15
2022-08-20T18:41:46.376Z,16.90
2022-08-20T18:46:55.140Z,16.55
2022-08-20T18:52:07.800Z,16.25
2022-08-20T18:57:41.316Z,15.92
2022-08-20T19:02:56.172Z,15.59
2022-08-20T19:08:00.792Z,15.38
2022-08-20T19:13:21.547Z,15.35
2022-08-20T19:18:32.941Z,15.43
2022-08-20T19:23:39.539Z,15.63
2022-08-20T19:28:45.089Z,15.91
2022-08-20T19:33:48.085Z,15.99
2022-08-20T19:39:01.479Z,16.05
2022-08-20T19:44:03.735Z,16.11
2022-08-20T19:49:24.074Z,16.14
2022-08-20T19:54:28.272Z,16.12
2022-08-20T19:59:30.512Z,16.17
2022-08-20T20:04:54.996Z,16.31
2022-08-20T20:09:59.974Z,16.53
2022-08-20T20:15:05.806Z,16.57
2022-08-20T20:20:23.451Z,16.68
2022-08-20T20:25:28.546Z,16.76
2022-08-20T20:30:33.492Z,16.82
2022-08-20T20:35:36.130Z,16.81
2022-08-20T20:40:49.610Z,16.80
2022-08-20T20:45:57.396Z,16.68
2022-08-20T20:50:59.515Z,16.48
2022-08-20T20:56:02.179Z,16.12
2022-08-20T21:01:04.725Z,15.70
2022-08-20T21:06:07.309Z,15.33
2022-08-20T21:11:11.692Z,14.97
2022-08-20T21:16:13.875Z,14.65
2022-08-20T21:21:16.025Z,14.46
2022-08-20T21:26:18.457Z,14.22
2022-08-20T21:31:20.676Z,14.07
2022-08-20T21:36:22.856Z,14.05
2022-08-20T21:41:30.240Z,14.12
2022-08-20T21:46:32.581Z,14.09
2022-08-20T21:51:34.760Z,13.99
2022-08-20T21:56:37.959Z,13.87
2022-08-20T22:01:40.109Z,13.67
2022-08-20T22:06:42.431Z,13.54
2022-08-20T22:11:44.750Z,13.36
2022-08-20T22:16:46.925Z,13.21
2022-08-20T22:21:49.447Z,12.99
2022-08-20T22:26:51.650Z,12.85
2022-08-20T22:31:54.218Z,12.73
2022-08-20T22:36:58.323Z,12.77
2022-08-20T22:42:00.515Z,12.66
2022-08-20T22:47:07.813Z,12.69
2022-08-20T22:52:11.783Z,12.59
2022-08-20T22:57:14.528Z,12.68
2022-08-20T23:02:18.359Z,12.48
2022-08-20T23:07:20.735Z,12.52
2022-08-20T23:12:23.027Z,12.48
2022-08-20T23:17:25.700Z,12.58
2022-08-20T23:22:27.964Z,12.50
2022-08-20T23:27:30.531Z,12.53
2022-08-20T23:32:32.735Z,12.31
2022-08-20T23:37:40.234Z,12.50
2022-08-20T23:42:42.549Z,12.37
2022-08-20T23:47:45.178Z,12.19
2022-08-20T23:52:47.935Z,12.23
2022-08-20T23:57:51.260Z,12.26
